Time;durP1;ratioP1;P1;durP2;ratioP2;P2;SDS_P1;SDS_P2;PMS_P1;PMS_P2;Temp;Humidity;BMP_temperature;BMP_pressure;BME280_temperature;BME280_humidity;BME280_pressure;Samples;Min_cycle;Max_cycle;Signal;HPM_P1;HPM_P2
2021/08/03 09:03:48;;;;;;;2.67;1.92;;;29.70;20.70;;;;;;4995734;28;20314;-84
2021/08/03 09:06:20;;;;;;;2.00;1.90;;;31.80;17.50;;;;;;4999494;28;20187;-85
2021/08/03 09:08:54;;;;;;;2.83;2.17;;;33.20;14.00;;;;;;5000180;28;20290;-85
2021/08/03 09:11:52;;;;;;;2.47;2.25;;;33.80;13.50;;;;;;4999485;28;20209;-85
2021/08/03 09:14:34;;;;;;;2.63;2.42;;;34.10;13.60;;;;;;4999480;28;20235;-85
2021/08/03 09:17:02;;;;;;;2.70;2.50;;;35.10;12.20;;;;;;4999552;28;20199;-85
2021/08/03 09:19:34;;;;;;;4.22;2.35;;;34.90;11.20;;;;;;5002117;28;20203;-85
2021/08/03 09:25:29;;;;;;;2.53;2.42;;;34.70;11.90;;;;;;5003699;28;20631;-85
2021/08/03 09:28:02;;;;;;;2.38;2.20;;;33.50;11.70;;;;;;5000150;28;20219;-85
2021/08/03 09:30:39;;;;;;;2.78;2.35;;;32.50;14.70;;;;;;4998036;28;20585;-85
2021/08/03 09:33:07;;;;;;;2.70;2.50;;;33.20;15.70;;;;;;4999058;28;20318;-86
2021/08/03 09:35:35;;;;;;;2.05;1.95;;;32.30;14.70;;;;;;5000346;28;20210;-84
2021/08/03 09:41:52;;;;;;;2.35;2.15;;;32.30;16.60;;;;;;4999369;28;20207;-84
2021/08/03 09:44:19;;;;;;;2.30;2.20;;;33.40;12.80;;;;;;4998923;28;20614;-85
2021/08/03 09:47:13;;;;;;;3.22;2.25;;;34.60;12.90;;;;;;5002204;28;20255;-85
2021/08/03 10:18:04;;;;;;;2.05;1.90;;;29.30;19.80;;;;;;5004101;28;20682;-86
2021/08/03 10:23:25;;;;;;;1.98;1.88;;;30.20;18.60;;;;;;4995402;28;20246;-86
2021/08/03 10:25:52;;;;;;;1.83;1.73;;;30.70;17.00;;;;;;4995938;28;20566;-86
2021/08/03 10:28:22;;;;;;;2.20;2.00;;;31.20;17.20;;;;;;4995776;28;20231;-85
2021/08/03 10:30:49;;;;;;;2.15;2.03;;;31.80;16.10;;;;;;4996419;28;20194;-86
2021/08/03 10:33:44;;;;;;;2.00;1.90;;;31.10;17.20;;;;;;4996375;28;20230;-85
2021/08/03 10:36:52;;;;;;;2.83;2.20;;;30.60;16.90;;;;;;4995948;28;20203;-86
2021/08/03 10:43:15;;;;;;;2.58;2.38;;;32.90;15.60;;;;;;4999011;28;20218;-86
2021/08/03 10:45:42;;;;;;;1.98;1.88;;;31.20;15.10;;;;;;5005682;28;20198;-86
2021/08/03 11:42:36;;;;;;;2.83;2.28;;;25.70;27.40;;;;;;4989738;28;20278;-82
2021/08/03 11:45:15;;;;;;;3.55;2.40;;;25.80;28.70;;;;;;4978614;28;20196;-81
2021/08/03 11:47:46;;;;;;;3.58;2.53;;;26.00;28.80;;;;;;4983070;28;20239;-83
2021/08/03 11:50:14;;;;;;;3.78;2.42;;;25.30;28.50;;;;;;5001526;28;20230;-83
2021/08/03 11:52:41;;;;;;;5.20;2.50;;;25.20;30.60;;;;;;5001846;28;20599;-83
2021/08/03 11:55:12;;;;;;;2.85;2.38;;;25.30;31.50;;;;;;5001276;28;20204;-81
2021/08/03 11:57:42;;;;;;;3.22;2.40;;;25.30;30.60;;;;;;4988154;28;20259;-82
2021/08/03 12:00:18;;;;;;;4.00;2.35;;;25.60;29.50;;;;;;5001943;28;20230;-84
2021/08/03 12:02:47;;;;;;;2.60;2.40;;;25.90;30.80;;;;;;5000020;28;20304;-81
2021/08/03 12:05:17;;;;;;;6.13;2.47;;;26.20;26.70;;;;;;4997422;28;20203;-86
2021/08/03 12:07:50;;;;;;;2.92;2.45;;;26.20;26.50;;;;;;4996329;28;20227;-83
2021/08/03 12:10:17;;;;;;;2.72;2.53;;;26.20;27.50;;;;;;4996258;28;20279;-84
2021/08/03 12:12:48;;;;;;;2.53;2.33;;;25.80;27.10;;;;;;4993804;28;20786;-82
2021/08/03 12:15:17;;;;;;;2.95;2.17;;;25.60;29.80;;;;;;4996078;28;20196;-82
2021/08/03 12:17:45;;;;;;;4.40;2.58;;;25.50;30.00;;;;;;4981384;28;20240;-81
2021/08/03 12:20:23;;;;;;;3.38;2.33;;;25.60;30.20;;;;;;4968546;28;20197;-82
2021/08/03 12:22:50;;;;;;;4.45;2.50;;;25.80;29.00;;;;;;4980224;28;20220;-83
2021/08/03 12:25:17;;;;;;;3.97;2.45;;;25.80;28.50;;;;;;4976523;28;20209;-83
2021/08/03 12:27:48;;;;;;;2.63;2.42;;;26.00;27.80;;;;;;4974896;28;20275;-83
2021/08/03 12:30:34;;;;;;;3.78;2.60;;;25.90;26.90;;;;;;4974814;28;20232;-83
2021/08/03 12:33:01;;;;;;;2.95;2.42;;;25.70;28.80;;;;;;4973857;28;20236;-84
2021/08/03 12:35:28;;;;;;;3.28;2.40;;;25.80;27.80;;;;;;4975567;28;20210;-85
2021/08/03 12:38:16;;;;;;;3.00;2.25;;;26.00;26.00;;;;;;4976075;28;20236;-83
2021/08/03 12:40:44;;;;;;;3.83;2.50;;;25.70;29.10;;;;;;4975892;28;20213;-82
2021/08/03 12:43:13;;;;;;;5.38;2.20;;;25.10;28.70;;;;;;4979284;28;20236;-82
2021/08/03 12:45:42;;;;;;;3.40;2.22;;;24.90;30.70;;;;;;4981994;28;20251;-82
